LFST 192330Z AUTO 32005KT CAVOK 11/05 Q1026 NOSIG

TAF TAF LFST 191700Z 1918/2018 03006KT CAVOK TEMPO 2014/2017 04010G20KT

 

Temperature in degrees Celsius: 11
Dew Point Temperature in degrees Celsius: 5

 

http://openflyers.com/case/icingChart.php?chart=2&temperature=11&dewPoint=5